createdAt,value
2017-11-01T00:01:22.998Z,101469
2017-11-01T00:03:51.936Z,101460
2017-11-01T00:06:20.195Z,101459
2017-11-01T00:08:48.382Z,101461
2017-11-01T00:11:16.520Z,101463
2017-11-01T00:13:44.662Z,101458
2017-11-01T00:16:12.812Z,101453
2017-11-01T00:18:40.959Z,101449
2017-11-01T00:21:09.123Z,101453
2017-11-01T00:23:37.275Z,101449
2017-11-01T00:26:05.477Z,101448
2017-11-01T00:28:33.629Z,101450
2017-11-01T00:31:01.823Z,101443
2017-11-01T00:40:30.506Z,101433
2017-11-01T00:42:59.460Z,101434
2017-11-01T00:45:27.623Z,101435
2017-11-01T00:47:55.792Z,101431
2017-11-01T00:50:23.935Z,101427
2017-11-01T00:52:52.513Z,101429
2017-11-01T00:55:20.660Z,101426
2017-11-01T00:57:49.614Z,101420
2017-11-01T01:00:18.292Z,101421
2017-11-01T01:02:46.463Z,101415
2017-11-01T01:05:14.610Z,101414
2017-11-01T01:07:42.758Z,101413
2017-11-01T01:10:11.707Z,101413
2017-11-01T01:12:39.858Z,101404
2017-11-01T01:15:08.006Z,101402
2017-11-01T01:17:36.939Z,101397
2017-11-01T01:20:05.097Z,101393
2017-11-01T01:22:33.288Z,101399
2017-11-01T01:25:01.438Z,101403
2017-11-01T01:27:29.591Z,101398
2017-11-01T01:29:58.539Z,101403
2017-11-01T01:32:26.694Z,101391
2017-11-01T01:34:54.858Z,101397
2017-11-01T01:37:22.992Z,101389
2017-11-01T01:39:51.922Z,101395
2017-11-01T01:42:20.074Z,101394
2017-11-01T01:44:48.247Z,101389
2017-11-01T01:47:16.408Z,101388
2017-11-01T01:49:44.578Z,101389
2017-11-01T01:52:13.499Z,101397
2017-11-01T01:54:41.660Z,101385
2017-11-01T01:57:09.866Z,101390
2017-11-01T01:59:38.143Z,101390
2017-11-01T02:02:06.300Z,101385
2017-11-01T02:04:34.491Z,101382
2017-11-01T02:07:02.643Z,101381
2017-11-01T02:09:30.792Z,101380
2017-11-01T02:11:58.990Z,101378
2017-11-01T02:14:27.134Z,101378
2017-11-01T02:16:56.064Z,101367
2017-11-01T02:19:24.219Z,101378
2017-11-01T02:21:52.380Z,101379
2017-11-01T02:24:20.527Z,101371
2017-11-01T02:26:49.463Z,101350
2017-11-01T02:29:17.617Z,101362
2017-11-01T02:31:45.824Z,101358
2017-11-01T02:34:13.968Z,101359
2017-11-01T02:36:42.138Z,101351
2017-11-01T02:39:10.311Z,101351
2017-11-01T02:41:38.484Z,101345
2017-11-01T02:44:06.638Z,101349
2017-11-01T02:46:34.795Z,101344
2017-11-01T02:49:03.724Z,101350
2017-11-01T02:51:31.920Z,101347
2017-11-01T02:54:00.093Z,101344
2017-11-01T02:56:28.260Z,101344
2017-11-01T02:58:56.435Z,101348
2017-11-01T03:01:24.588Z,101337
2017-11-01T03:03:52.754Z,101342
2017-11-01T03:06:20.902Z,101332
2017-11-01T03:08:49.838Z,101334
2017-11-01T03:11:17.995Z,101335
2017-11-01T03:13:46.154Z,101325
2017-11-01T03:16:14.300Z,101324
2017-11-01T03:18:42.454Z,101330
2017-11-01T03:21:10.616Z,101337
2017-11-01T03:23:38.874Z,101327
2017-11-01T03:26:07.019Z,101323
2017-11-01T03:28:35.228Z,101326
2017-11-01T03:31:03.819Z,101322
2017-11-01T03:33:31.971Z,101321
2017-11-01T03:36:00.159Z,101318
2017-11-01T03:38:28.337Z,101309
2017-11-01T03:40:56.497Z,101312
2017-11-01T03:43:24.642Z,101315
2017-11-01T03:45:52.812Z,101315
2017-11-01T03:48:20.959Z,101308
2017-11-01T03:50:49.903Z,101306
2017-11-01T03:53:18.071Z,101307
2017-11-01T03:55:46.243Z,101302
2017-11-01T03:58:14.427Z,101302
2017-11-01T04:00:42.611Z,101300
2017-11-01T04:03:10.771Z,101304
2017-11-01T04:05:38.934Z,101298
2017-11-01T04:08:07.092Z,101299
2017-11-01T04:10:35.259Z,101290
2017-11-01T04:13:03.407Z,101287
2017-11-01T04:15:32.335Z,101282
2017-11-01T04:18:02.410Z,101284
2017-11-01T04:20:31.376Z,101281
2017-11-01T04:22:59.520Z,101293
2017-11-01T04:25:28.431Z,101289
2017-11-01T04:27:56.599Z,101294
2017-11-01T04:30:24.759Z,101284
2017-11-01T04:32:52.938Z,101282
2017-11-01T04:35:21.091Z,101288
2017-11-01T04:37:49.277Z,101277
2017-11-01T04:40:18.108Z,101276
2017-11-01T04:42:47.056Z,101277
2017-11-01T04:45:15.203Z,101283
2017-11-01T04:47:43.520Z,101284
2017-11-01T04:50:11.683Z,101287
2017-11-01T04:52:40.648Z,101272
2017-11-01T04:55:12.725Z,101268
2017-11-01T04:57:41.730Z,101267
2017-11-01T05:00:15.334Z,101272
2017-11-01T05:02:43.527Z,101274
2017-11-01T05:05:17.361Z,101267
2017-11-01T05:07:46.416Z,101272
2017-11-01T05:10:16.467Z,101268
2017-11-01T05:12:45.423Z,101272
2017-11-01T05:15:23.732Z,101264
2017-11-01T05:17:51.894Z,101270
2017-11-01T05:20:20.070Z,101254
2017-11-01T05:22:48.237Z,101270
2017-11-01T05:25:22.028Z,101262
2017-11-01T05:27:50.175Z,101252
2017-11-01T05:30:18.394Z,101259
2017-11-01T05:32:46.556Z,101259
2017-11-01T05:35:14.724Z,101254
2017-11-01T05:37:42.870Z,101248
2017-11-01T05:40:11.040Z,101244
2017-11-01T05:42:39.211Z,101246
2017-11-01T05:45:08.140Z,101243
2017-11-01T05:47:36.292Z,101244
2017-11-01T05:50:04.456Z,101238
2017-11-01T05:52:32.631Z,101224
2017-11-01T05:55:00.831Z,101219
2017-11-01T05:57:29.007Z,101216
2017-11-01T05:59:57.182Z,101217
2017-11-01T06:02:25.355Z,101215
2017-11-01T06:04:53.523Z,101217
2017-11-01T06:07:21.695Z,101218
2017-11-01T06:09:49.850Z,101220
2017-11-01T06:12:18.015Z,101228
2017-11-01T06:14:46.163Z,101221
2017-11-01T06:17:15.116Z,101228
2017-11-01T06:19:43.257Z,101223
2017-11-01T06:22:11.463Z,101222
2017-11-01T06:24:39.652Z,101225
2017-11-01T06:27:07.907Z,101222
2017-11-01T06:29:36.052Z,101230
2017-11-01T06:32:04.227Z,101227
2017-11-01T06:34:32.559Z,101226
2017-11-01T06:37:00.806Z,101228
2017-11-01T06:39:28.972Z,101229
2017-11-01T06:41:57.122Z,101232
2017-11-01T06:44:25.294Z,101235
2017-11-01T06:46:53.451Z,101229
2017-11-01T06:49:21.616Z,101234
2017-11-01T06:51:51.992Z,101227
2017-11-01T06:54:20.167Z,101236
2017-11-01T06:56:48.344Z,101229
2017-11-01T06:59:16.500Z,101236
2017-11-01T07:01:44.671Z,101234
2017-11-01T07:04:12.847Z,101238
2017-11-01T07:06:41.022Z,101251
2017-11-01T07:09:09.187Z,101242
2017-11-01T07:11:42.895Z,101239
2017-11-01T07:14:11.071Z,101238
2017-11-01T07:16:39.235Z,101254
2017-11-01T07:19:07.383Z,101250
2017-11-01T07:21:35.609Z,101244
2017-11-01T07:24:03.759Z,101256
2017-11-01T07:26:31.915Z,101259
2017-11-01T07:29:00.063Z,101247
2017-11-01T07:31:29.004Z,101249
2017-11-01T07:33:57.163Z,101258
2017-11-01T07:36:25.354Z,101251
2017-11-01T07:38:53.507Z,101254
2017-11-01T07:41:21.698Z,101250
2017-11-01T07:43:49.867Z,101254
2017-11-01T07:46:18.503Z,101236
2017-11-01T07:48:47.448Z,101231
2017-11-01T07:51:15.635Z,101245
2017-11-01T07:53:43.795Z,101240
2017-11-01T07:56:11.948Z,101230
2017-11-01T07:58:40.115Z,101239
2017-11-01T08:01:08.306Z,101232
2017-11-01T08:03:36.472Z,101227
2017-11-01T08:06:04.616Z,101245
2017-11-01T08:08:32.786Z,101240
2017-11-01T08:11:01.002Z,101237
2017-11-01T08:13:29.160Z,101233
2017-11-01T08:15:57.300Z,101232
2017-11-01T08:18:26.227Z,101223
2017-11-01T08:20:54.376Z,101230
2017-11-01T08:23:22.551Z,101227
2017-11-01T08:25:50.694Z,101231
2017-11-01T08:28:19.655Z,101230
2017-11-01T08:30:47.799Z,101222
2017-11-01T08:33:15.988Z,101230
2017-11-01T08:35:44.560Z,101242
2017-11-01T08:38:12.702Z,101244
2017-11-01T08:40:41.742Z,101232
2017-11-01T08:43:09.900Z,101234
2017-11-01T08:45:38.062Z,101241
2017-11-01T08:48:06.215Z,101238
2017-11-01T08:50:34.382Z,101243
2017-11-01T08:53:03.312Z,101246
2017-11-01T08:55:31.524Z,101238
2017-11-01T08:58:01.085Z,101241
2017-11-01T09:00:29.285Z,101243
2017-11-01T09:02:57.432Z,101236
2017-11-01T09:05:25.611Z,101233
2017-11-01T09:07:53.747Z,101236
2017-11-01T09:10:22.679Z,101235
2017-11-01T09:12:50.862Z,101225
2017-11-01T09:15:19.010Z,101222
2017-11-01T09:17:47.919Z,101223
2017-11-01T09:20:16.207Z,101235
2017-11-01T09:22:44.377Z,101236
2017-11-01T09:25:12.516Z,101225
2017-11-01T09:27:40.679Z,101232
2017-11-01T09:30:08.836Z,101237
2017-11-01T09:32:37.774Z,101229
2017-11-01T09:35:05.921Z,101232
2017-11-01T09:37:34.116Z,101234
2017-11-01T09:40:02.292Z,101248
2017-11-01T09:42:30.568Z,101229
2017-11-01T09:44:58.724Z,101216
2017-11-01T09:47:27.247Z,101229
2017-11-01T09:49:55.427Z,101226
2017-11-01T09:52:23.590Z,101223
2017-11-01T09:54:51.759Z,101225
2017-11-01T09:57:19.912Z,101227
2017-11-01T09:59:48.224Z,101225
2017-11-01T10:02:17.171Z,101235
2017-11-01T10:04:45.345Z,101223
2017-11-01T10:07:13.547Z,101230
2017-11-01T10:09:41.718Z,101226
2017-11-01T10:12:10.027Z,101230
2017-11-01T10:14:38.222Z,101224
2017-11-01T10:17:06.665Z,101211
2017-11-01T10:19:35.874Z,101214
2017-11-01T10:22:04.977Z,101209
2017-11-01T10:24:33.172Z,101202
2017-11-01T10:27:01.487Z,101207
2017-11-01T10:29:29.670Z,101227
2017-11-01T10:31:57.836Z,101216
2017-11-01T10:34:26.024Z,101216
2017-11-01T10:36:54.166Z,101209
2017-11-01T10:39:22.325Z,101199
2017-11-01T10:41:50.491Z,101211
2017-11-01T10:44:18.643Z,101209
2017-11-01T10:46:47.019Z,101204
2017-11-01T10:49:15.179Z,101196
2017-11-01T10:51:44.112Z,101192
2017-11-01T10:54:12.291Z,101196
2017-11-01T10:56:51.394Z,101188
2017-11-01T10:59:19.792Z,101186
2017-11-01T11:01:47.956Z,101197
2017-11-01T11:04:16.138Z,101194
2017-11-01T11:06:44.352Z,101194
2017-11-01T11:09:13.266Z,101181
2017-11-01T11:11:41.436Z,101188
2017-11-01T11:14:09.603Z,101182
2017-11-01T11:16:38.548Z,101173
2017-11-01T11:19:06.714Z,101178
2017-11-01T11:21:34.873Z,101175
2017-11-01T11:24:03.051Z,101182
2017-11-01T11:26:31.214Z,101170
2017-11-01T11:28:59.376Z,101182
2017-11-01T11:31:27.535Z,101184
2017-11-01T11:33:56.469Z,101172
2017-11-01T11:36:24.740Z,101172
2017-11-01T11:38:53.019Z,101174
2017-11-01T11:41:21.189Z,101183
2017-11-01T11:43:49.438Z,101171
2017-11-01T11:46:17.592Z,101174
2017-11-01T11:48:46.537Z,101158
2017-11-01T11:51:14.734Z,101168
2017-11-01T11:53:42.929Z,101162
2017-11-01T11:56:11.873Z,101167
2017-11-01T11:58:40.034Z,101164
2017-11-01T12:01:08.514Z,101164
2017-11-01T12:03:36.959Z,101158
2017-11-01T12:06:05.131Z,101149
2017-11-01T12:08:33.287Z,101150
2017-11-01T12:11:02.240Z,101157
2017-11-01T12:13:30.390Z,101155
2017-11-01T12:15:58.564Z,101159
2017-11-01T12:18:26.714Z,101151
2017-11-01T12:20:54.881Z,101155
2017-11-01T12:23:23.800Z,101151
2017-11-01T12:25:51.985Z,101146
2017-11-01T12:28:20.143Z,101161
2017-11-01T12:30:48.322Z,101151
2017-11-01T12:33:16.597Z,101158
2017-11-01T12:35:44.758Z,101138
2017-11-01T12:38:12.914Z,101141
2017-11-01T12:40:41.067Z,101143
2017-11-01T12:43:10.012Z,101134
2017-11-01T12:45:38.180Z,101141
2017-11-01T12:48:06.343Z,101156
2017-11-01T12:50:34.492Z,101135
2017-11-01T12:53:03.781Z,101142
2017-11-01T12:55:32.719Z,101141
2017-11-01T12:58:00.897Z,101137
2017-11-01T13:00:29.612Z,101135
2017-11-01T13:02:57.860Z,101136
2017-11-01T13:05:26.020Z,101138
2017-11-01T13:07:54.200Z,101127
2017-11-01T13:10:22.347Z,101142
2017-11-01T13:12:50.551Z,101123
2017-11-01T13:15:18.694Z,101130
2017-11-01T13:17:46.840Z,101132
2017-11-01T13:20:15.778Z,101118
2017-11-01T13:22:43.932Z,101109
2017-11-01T13:25:12.100Z,101107
2017-11-01T13:27:40.301Z,101115
2017-11-01T13:30:08.469Z,101114
2017-11-01T13:32:36.623Z,101107
2017-11-01T13:35:04.822Z,101113
2017-11-01T13:37:32.980Z,101114
2017-11-01T13:40:01.176Z,101111
2017-11-01T13:42:29.338Z,101116
2017-11-01T13:44:57.517Z,101114
2017-11-01T13:47:25.675Z,101105
2017-11-01T13:49:53.842Z,101116
2017-11-01T13:52:21.991Z,101114
2017-11-01T13:54:50.531Z,101115
2017-11-01T13:57:18.696Z,101112
2017-11-01T13:59:46.849Z,101129
2017-11-01T14:02:15.030Z,101104
2017-11-01T14:04:43.879Z,101106
2017-11-01T14:07:12.052Z,101110
2017-11-01T14:09:40.976Z,101101
2017-11-01T14:12:09.150Z,101106
2017-11-01T14:14:37.327Z,101102
2017-11-01T14:17:05.499Z,101093
2017-11-01T14:19:34.387Z,101094
2017-11-01T14:22:02.579Z,101088
2017-11-01T14:24:30.753Z,101095
2017-11-01T14:26:58.950Z,101099
2017-11-01T14:29:27.876Z,101093
2017-11-01T14:31:56.892Z,101101
2017-11-01T14:34:25.042Z,101100
2017-11-01T14:36:53.204Z,101101
2017-11-01T14:39:21.425Z,101102
2017-11-01T14:41:49.586Z,101110
2017-11-01T14:44:17.866Z,101104
2017-11-01T14:46:46.018Z,101092
2017-11-01T14:49:14.200Z,101111
2017-11-01T14:51:42.362Z,101113
2017-11-01T14:54:10.542Z,101111
2017-11-01T14:56:38.700Z,101109
2017-11-01T14:59:06.895Z,101110
2017-11-01T15:01:35.061Z,101107
2017-11-01T15:04:03.819Z,101109
2017-11-01T15:06:32.794Z,101122
2017-11-01T15:09:01.740Z,101118
2017-11-01T15:11:29.909Z,101109
2017-11-01T15:13:58.103Z,101104
2017-11-01T15:16:26.423Z,101116
2017-11-01T15:18:54.592Z,101113
2017-11-01T15:21:23.540Z,101117
2017-11-01T15:23:51.692Z,101121
2017-11-01T15:26:19.867Z,101134
2017-11-01T15:28:48.023Z,101128
2017-11-01T15:31:16.208Z,101131
2017-11-01T15:33:44.350Z,101137
2017-11-01T15:36:12.525Z,101134
2017-11-01T15:38:40.688Z,101122
2017-11-01T15:41:09.631Z,101116
2017-11-01T15:43:43.534Z,101117
2017-11-01T15:46:11.707Z,101123
2017-11-01T15:48:39.862Z,101109
2017-11-01T15:51:08.060Z,101113
2017-11-01T15:53:42.184Z,101120
2017-11-01T15:56:10.535Z,101111
2017-11-01T15:58:38.698Z,101115
2017-11-01T16:01:06.865Z,101117
2017-11-01T16:03:35.035Z,101106
2017-11-01T16:06:03.235Z,101115
2017-11-01T16:08:31.428Z,101112
2017-11-01T16:10:59.652Z,101113
2017-11-01T16:13:27.836Z,101129
2017-11-01T16:15:56.019Z,101110
2017-11-01T16:18:24.208Z,101119
2017-11-01T16:20:52.368Z,101122
2017-11-01T16:23:20.545Z,101116
2017-11-01T16:25:49.200Z,101113
2017-11-01T16:28:17.497Z,101106
2017-11-01T16:30:45.656Z,101116
2017-11-01T16:33:13.868Z,101121
2017-11-01T16:35:43.311Z,101115
2017-11-01T16:38:12.239Z,101120
2017-11-01T16:40:40.934Z,101121
2017-11-01T16:43:09.087Z,101109
2017-11-01T16:45:37.280Z,101123
2017-11-01T16:48:05.439Z,101121
2017-11-01T16:50:33.608Z,101129
2017-11-01T16:53:01.763Z,101127
2017-11-01T16:55:29.969Z,101121
2017-11-01T16:57:58.132Z,101118
2017-11-01T17:00:27.407Z,101123
2017-11-01T17:02:55.969Z,101116
2017-11-01T17:05:24.158Z,101109
2017-11-01T17:07:52.935Z,101106
2017-11-01T17:10:21.874Z,101106
2017-11-01T17:12:50.011Z,101107
2017-11-01T17:15:18.328Z,101102
2017-11-01T17:17:46.484Z,101109
2017-11-01T17:20:14.646Z,101100
2017-11-01T17:22:42.807Z,101088
2017-11-01T17:25:10.967Z,101086
2017-11-01T17:27:40.018Z,101084
2017-11-01T17:30:08.186Z,101093
2017-11-01T17:32:36.364Z,101101
2017-11-01T17:35:04.543Z,101113
2017-11-01T17:37:32.747Z,101116
2017-11-01T17:40:01.697Z,101104
2017-11-01T17:42:29.876Z,101110
2017-11-01T17:44:58.022Z,101101
2017-11-01T17:47:26.211Z,101099
2017-11-01T17:49:54.384Z,101109
2017-11-01T17:52:22.572Z,101108
2017-11-01T17:54:50.746Z,101101
2017-11-01T17:57:18.919Z,101094
2017-11-01T17:59:47.067Z,101106
2017-11-01T18:02:15.238Z,101102
2017-11-01T18:04:43.515Z,101106
2017-11-01T18:07:12.461Z,101105
2017-11-01T18:09:41.409Z,101091
2017-11-01T18:12:09.593Z,101087
2017-11-01T18:14:37.778Z,101096
2017-11-01T18:17:06.751Z,101079
2017-11-01T18:19:35.455Z,101084
2017-11-01T18:22:03.724Z,101086
2017-11-01T18:24:31.906Z,101079
2017-11-01T18:27:00.091Z,101075
2017-11-01T18:29:29.039Z,101080
2017-11-01T18:31:57.198Z,101085
2017-11-01T18:34:25.368Z,101072
2017-11-01T18:36:53.527Z,101074
2017-11-01T18:39:21.722Z,101078
2017-11-01T18:41:49.885Z,101068
2017-11-01T18:44:18.077Z,101058
2017-11-01T18:46:46.270Z,101065
2017-11-01T18:49:14.435Z,101072
2017-11-01T18:51:42.599Z,101069
2017-11-01T18:54:10.760Z,101059
2017-11-01T18:56:38.927Z,101056
2017-11-01T18:59:07.107Z,101058
2017-11-01T19:01:35.296Z,101069
2017-11-01T19:04:03.465Z,101067
2017-11-01T19:06:31.643Z,101061
2017-11-01T19:08:59.803Z,101058
2017-11-01T19:11:27.967Z,101063
2017-11-01T19:13:56.128Z,101055
2017-11-01T19:16:24.324Z,101061
2017-11-01T19:18:52.483Z,101049
2017-11-01T19:21:20.660Z,101046
2017-11-01T19:23:48.846Z,101060
2017-11-01T19:26:17.409Z,101052
2017-11-01T19:28:45.616Z,101052
2017-11-01T19:31:13.772Z,101046
2017-11-01T19:33:41.952Z,101038
2017-11-01T19:36:10.111Z,101049
2017-11-01T19:38:38.287Z,101040
2017-11-01T19:41:06.465Z,101035
2017-11-01T19:43:34.636Z,101036
2017-11-01T19:46:02.811Z,101024
2017-11-01T19:48:30.982Z,101018
2017-11-01T19:50:59.131Z,101028
2017-11-01T19:53:27.307Z,101006
2017-11-01T19:55:55.491Z,101014
2017-11-01T19:58:23.642Z,101016
2017-11-01T20:00:52.027Z,101011
2017-11-01T20:03:20.195Z,101016
2017-11-01T20:05:48.369Z,101046
2017-11-01T20:08:16.549Z,101038
2017-11-01T20:10:44.731Z,101037
2017-11-01T20:13:12.891Z,101033
2017-11-01T20:15:41.068Z,101023
2017-11-01T20:18:09.223Z,101036
2017-11-01T20:20:37.616Z,101018
2017-11-01T20:23:05.777Z,101019
2017-11-01T20:25:33.952Z,101012
2017-11-01T20:28:02.106Z,101018
2017-11-01T20:30:31.045Z,101012
2017-11-01T20:32:59.203Z,101021
2017-11-01T20:35:27.428Z,101027
2017-11-01T20:37:55.592Z,101018
2017-11-01T20:40:23.776Z,101024
2017-11-01T20:42:51.937Z,101033
2017-11-01T20:45:20.832Z,101028
2017-11-01T20:47:49.764Z,101015
2017-11-01T20:50:18.701Z,101015
2017-11-01T20:52:46.863Z,101010
2017-11-01T20:55:15.027Z,101003
2017-11-01T20:57:43.712Z,100997
2017-11-01T21:00:11.879Z,100995
2017-11-01T21:02:40.170Z,101000
2017-11-01T21:05:08.331Z,100996
2017-11-01T21:07:36.508Z,100980
2017-11-01T21:10:04.665Z,100980
2017-11-01T21:12:33.535Z,100978
2017-11-01T21:15:01.678Z,100979
2017-11-01T21:17:30.635Z,100985
2017-11-01T21:19:58.796Z,100966
2017-11-01T21:22:26.967Z,100972
2017-11-01T21:24:55.256Z,100961
2017-11-01T21:27:23.531Z,100969
2017-11-01T21:29:51.696Z,100959
2017-11-01T21:32:19.863Z,100956
2017-11-01T21:34:48.015Z,100952
2017-11-01T21:37:16.183Z,100959
2017-11-01T21:39:44.335Z,100959
2017-11-01T21:42:13.258Z,100948
2017-11-01T21:44:41.431Z,100935
2017-11-01T21:47:09.625Z,100945
2017-11-01T21:49:37.786Z,100932
2017-11-01T21:52:05.930Z,100933
2017-11-01T21:54:34.138Z,100930
2017-11-01T21:57:02.288Z,100927
2017-11-01T21:59:30.478Z,100938
2017-11-01T22:01:58.635Z,100931
2017-11-01T22:04:26.846Z,100937
2017-11-01T22:06:55.006Z,100944
2017-11-01T22:09:23.189Z,100934
2017-11-01T22:11:51.343Z,100943
2017-11-01T22:14:19.520Z,100944
2017-11-01T22:16:47.678Z,100947
2017-11-01T22:19:15.827Z,100956
2017-11-01T22:21:44.760Z,100954
2017-11-01T22:24:13.427Z,100951
2017-11-01T22:26:41.590Z,100953
2017-11-01T22:29:09.882Z,100962
2017-11-01T22:31:38.052Z,100957
2017-11-01T22:34:06.212Z,100947
2017-11-01T22:36:34.392Z,100944
2017-11-01T22:39:02.540Z,100947
2017-11-01T22:41:31.488Z,100945
2017-11-01T22:44:00.060Z,100935
2017-11-01T22:46:28.241Z,100935
2017-11-01T22:48:56.397Z,100940
2017-11-01T22:51:24.756Z,100922
2017-11-01T22:53:52.904Z,100915
2017-11-01T22:56:21.829Z,100929
2017-11-01T22:58:50.021Z,100918
2017-11-01T23:01:18.192Z,100916
2017-11-01T23:03:46.464Z,100905
2017-11-01T23:06:14.671Z,100904
2017-11-01T23:08:42.834Z,100901
2017-11-01T23:11:10.993Z,100906
2017-11-01T23:13:39.172Z,100909
2017-11-01T23:16:07.338Z,100898
2017-11-01T23:18:35.507Z,100906
2017-11-01T23:21:03.679Z,100895
2017-11-01T23:23:32.195Z,100901
2017-11-01T23:26:00.348Z,100893
2017-11-01T23:28:28.527Z,100887
2017-11-01T23:30:56.687Z,100870
2017-11-01T23:33:24.851Z,100876
2017-11-01T23:35:53.120Z,100866
2017-11-01T23:38:21.527Z,100868
2017-11-01T23:40:49.791Z,100860
2017-11-01T23:43:17.957Z,100844
2017-11-01T23:45:46.128Z,100847
2017-11-01T23:48:14.416Z,100843
2017-11-01T23:50:42.589Z,100843
2017-11-01T23:53:10.748Z,100830
2017-11-01T23:55:38.927Z,100827
2017-11-01T23:58:07.200Z,100839
